KCAD/CAD METAR and TAF weather

Enter ICAO airport designator
Station Type Date Time Source
KCAD METAR 2021/02/28 03:15 UTC NOAA

KCAD 280315Z AUTO 19003KT 10SM CLR 00/M03 A3007 RMK AO2 T10041026


Station Type Date Time Source
KCAD Decoded METAR 2021/02/28 03:15 UTC NOAA

Cadillac / Wexford County, MI, United States (KCAD) 44-17N 085-25W
Feb 27, 2021 - 10:15 PM EST / 2021.02.28 0315 UTC
Wind: from the S (190 degrees) at 3 MPH (3 KT):0
Visibility: 10 mile(s):0
Sky conditions: clear
Temperature: 31.3 F (-0.4 C)
Dew Point: 27.3 F (-2.6 C)
Relative Humidity: 85%
Pressure (altimeter): 30.07 in. Hg (1018 hPa)
ob: KCAD 280315Z AUTO 19003KT 10SM CLR 00/M03 A3007 RMK AO2 T10041026
cycle: 3

Station Type Date Time Source
KCAD TAF UTC NOAA

Error!

Example: see airport list